Time;durP1;ratioP1;P1;durP2;ratioP2;P2;SDS_P1;SDS_P2;PMS_P1;PMS_P2;Temp;Humidity;BMP_temperature;BMP_pressure;BME280_temperature;BME280_humidity;BME280_pressure;Samples;Min_cycle;Max_cycle;Signal;HPM_P1;HPM_P2
2021/04/08 00:02:01;;;;;;;8.53;5.47;;;102.40;1894.40;;;;;;5095115;28;20345;-70
2021/04/08 00:04:28;;;;;;;8.27;5.13;;;102.40;1920.00;;;;;;5095396;28;20392;-72
2021/04/08 00:06:54;;;;;;;11.43;5.73;;;102.40;1894.40;;;;;;5095084;28;20415;-71
2021/04/08 00:09:21;;;;;;;10.23;6.27;;;102.40;2227.20;;;;;;5094965;28;20417;-70
2021/04/08 00:11:47;;;;;;;7.73;5.23;;;77.70;1920.00;;;;;;5094601;28;20369;-73
2021/04/08 00:14:14;;;;;;;8.40;5.30;;;102.40;1920.00;;;;;;5094854;28;20408;-71
2021/04/08 00:16:40;;;;;;;9.33;5.57;;;77.70;1920.00;;;;;;5095184;28;20393;-71
2021/04/08 00:19:08;;;;;;;10.07;5.80;;;77.70;1920.00;;;;;;5094887;28;20372;-72
2021/04/08 00:21:34;;;;;;;13.90;5.70;;;77.70;1920.00;;;;;;5094767;28;20407;-71
2021/04/08 00:24:01;;;;;;;8.93;6.13;;;77.70;1920.00;;;;;;5094766;28;20395;-71
2021/04/08 00:26:27;;;;;;;11.13;6.10;;;77.50;1920.00;;;;;;5094664;28;20358;-71
2021/04/08 00:28:54;;;;;;;11.30;6.57;;;77.60;1920.00;;;;;;5094679;28;20111;-72
2021/04/08 00:31:20;;;;;;;10.93;6.40;;;77.50;1920.00;;;;;;5094578;28;20384;-71
2021/04/08 00:33:46;;;;;;;11.77;6.33;;;77.50;1945.60;;;;;;5076441;28;20027;-73
2021/04/08 00:36:12;;;;;;;11.43;6.37;;;77.50;1945.60;;;;;;5094777;28;20410;-71
2021/04/08 00:38:38;;;;;;;11.27;5.77;;;77.40;1945.60;;;;;;5094293;28;20028;-71
2021/04/08 00:41:05;;;;;;;8.47;5.40;;;77.40;1945.60;;;;;;5094399;28;20453;-73
2021/04/08 00:43:31;;;;;;;9.17;5.37;;;77.40;1945.60;;;;;;5094705;28;20364;-72
2021/04/08 00:45:57;;;;;;;9.53;5.97;;;77.40;1945.60;;;;;;5094547;28;20326;-71
2021/04/08 00:48:23;;;;;;;8.47;5.40;;;77.40;1945.60;;;;;;5094448;28;20427;-70
2021/04/08 00:50:50;;;;;;;8.30;4.97;;;77.40;1945.60;;;;;;5094283;28;20531;-71
2021/04/08 00:53:21;;;;;;;7.57;5.00;;;77.40;1971.20;;;;;;5094516;28;20469;-70
2021/04/08 00:55:52;;;;;;;9.93;5.63;;;77.40;1971.20;;;;;;5094471;28;20473;-72
2021/04/08 00:58:20;;;;;;;8.03;4.97;;;77.40;1971.20;;;;;;5094727;28;20449;-71
2021/04/08 01:00:48;;;;;;;6.97;5.00;;;77.40;1971.20;;;;;;5094129;28;20456;-73
2021/04/08 01:03:16;;;;;;;8.07;4.93;;;77.30;1971.20;;;;;;5094269;28;20467;-68
2021/04/08 01:05:42;;;;;;;7.93;5.37;;;77.30;1996.80;;;;;;5094207;28;20365;-72
2021/04/08 01:08:09;;;;;;;12.27;6.00;;;77.30;1996.80;;;;;;5094404;28;20445;-71
2021/04/08 01:10:35;;;;;;;9.57;5.60;;;77.20;1996.80;;;;;;5094180;28;20456;-72
2021/04/08 01:13:03;;;;;;;9.77;5.00;;;77.20;1996.80;;;;;;5093843;28;20449;-70
2021/04/08 01:15:30;;;;;;;8.00;5.07;;;77.20;1996.80;;;;;;5093724;28;20390;-72
2021/04/08 01:17:59;;;;;;;8.53;5.20;;;77.10;2022.40;;;;;;5093993;28;20123;-72
2021/04/08 01:20:49;;;;;;;8.97;5.10;;;77.10;2022.40;;;;;;5093658;28;20428;-70
2021/04/08 01:23:34;;;;;;;7.80;5.13;;;77.10;2048.00;;;;;;5093406;28;20468;-70
2021/04/08 01:26:14;;;;;;;8.10;5.53;;;77.00;2048.00;;;;;;5093785;28;20460;-72
2021/04/08 01:28:47;;;;;;;8.33;5.43;;;77.00;2048.00;;;;;;5093925;28;20431;-71
2021/04/08 01:31:17;;;;;;;7.72;4.85;;;76.90;2048.00;;;;;;5093667;28;20460;-71
2021/04/08 01:33:45;;;;;;;9.67;4.57;;;76.90;2048.00;;;;;;5075384;28;20384;-69
2021/04/08 01:36:20;;;;;;;6.60;4.50;;;76.90;2048.00;;;;;;5093434;28;20459;-71
2021/04/08 01:38:55;;;;;;;6.43;4.80;;;76.80;2048.00;;;;;;5093259;28;20502;-73
2021/04/08 01:41:24;;;;;;;7.60;4.43;;;76.90;2073.60;;;;;;5093509;28;20342;-72
2021/04/08 01:43:52;;;;;;;8.00;5.40;;;76.90;2048.00;;;;;;5093676;28;20407;-71
2021/04/08 01:46:20;;;;;;;11.63;4.40;;;76.80;2073.60;;;;;;5093675;28;20512;-72
2021/04/08 01:48:50;;;;;;;9.60;4.97;;;76.80;2048.00;;;;;;5093502;28;20354;-73
2021/04/08 01:51:17;;;;;;;6.83;4.73;;;76.80;2048.00;;;;;;5093385;28;20363;-72
2021/04/08 01:53:50;;;;;;;8.33;5.07;;;76.80;2048.00;;;;;;5093270;28;20395;-72
2021/04/08 01:56:21;;;;;;;7.57;4.68;;;76.80;2048.00;;;;;;5093840;28;20449;-69
2021/04/08 01:58:49;;;;;;;8.03;4.77;;;76.80;2048.00;;;;;;5093216;28;20504;-70
2021/04/08 02:01:19;;;;;;;9.40;4.90;;;76.80;2048.00;;;;;;5093498;28;20441;-70
2021/04/08 02:03:50;;;;;;;7.10;4.80;;;76.90;2048.00;;;;;;5093116;28;20372;-72
2021/04/08 02:06:17;;;;;;;6.80;4.37;;;76.90;2022.40;;;;;;5093723;28;20500;-69
2021/04/08 02:08:46;;;;;;;7.57;4.70;;;76.80;2048.00;;;;;;5093021;28;20530;-70
2021/04/08 02:11:13;;;;;;;9.77;5.27;;;52.10;2048.00;;;;;;5093069;28;20340;-72
2021/04/08 02:13:41;;;;;;;7.50;4.97;;;76.80;2048.00;;;;;;5093199;28;20416;-72
2021/04/08 02:16:09;;;;;;;9.40;5.63;;;76.80;2022.40;;;;;;5093108;28;20395;-71
2021/04/08 02:18:37;;;;;;;8.90;5.80;;;76.80;2022.40;;;;;;5093335;28;20027;-72
2021/04/08 02:21:04;;;;;;;10.03;6.07;;;52.10;2048.00;;;;;;5092985;28;20483;-71
2021/04/08 02:23:33;;;;;;;9.40;5.87;;;52.10;2022.40;;;;;;5092946;28;20545;-71
2021/04/08 02:26:00;;;;;;;9.67;5.80;;;52.10;2022.40;;;;;;5093073;28;20034;-72
2021/04/08 02:28:28;;;;;;;7.93;5.40;;;52.10;2022.40;;;;;;5093116;28;20461;-68
2021/04/08 02:30:55;;;;;;;7.53;4.23;;;52.10;2022.40;;;;;;5093331;28;20341;-72
2021/04/08 02:33:29;;;;;;;8.43;4.60;;;52.10;2022.40;;;;;;5093702;28;20344;-70
2021/04/08 02:35:57;;;;;;;6.37;3.90;;;52.10;2022.40;;;;;;5095035;28;20586;-72
2021/04/08 02:38:26;;;;;;;7.13;5.00;;;52.10;2022.40;;;;;;5097160;28;20507;-72
2021/04/08 02:40:52;;;;;;;8.13;5.37;;;52.10;2022.40;;;;;;5096956;28;20406;-71
2021/04/08 02:43:19;;;;;;;11.27;5.97;;;52.10;1996.80;;;;;;5097003;28;20473;-69
2021/04/08 02:45:46;;;;;;;11.03;6.17;;;76.80;1996.80;;;;;;5096865;28;20016;-73
2021/04/08 02:48:17;;;;;;;9.13;5.27;;;52.10;1996.80;;;;;;5096699;28;20468;-71
2021/04/08 02:50:45;;;;;;;6.43;4.47;;;52.00;1996.80;;;;;;5096738;28;20476;-71
2021/04/08 02:53:30;;;;;;;8.20;5.00;;;52.00;2022.40;;;;;;5096874;28;20028;-70
2021/04/08 02:55:56;;;;;;;7.53;5.20;;;51.90;2022.40;;;;;;5096750;28;20518;-71
2021/04/08 02:58:24;;;;;;;10.70;6.33;;;51.90;2022.40;;;;;;5096534;28;20365;-67
2021/04/08 03:01:11;;;;;;;14.47;7.20;;;51.90;2022.40;;;;;;5096530;28;20353;-69
2021/04/08 03:03:44;;;;;;;22.10;10.97;;;51.90;2022.40;;;;;;5096504;28;20395;-72
2021/04/08 03:06:12;;;;;;;35.78;13.68;;;51.80;2022.40;;;;;;5096778;28;20422;-68
2021/04/08 03:08:42;;;;;;;43.60;17.97;;;51.80;2048.00;;;;;;5106739;22;20460;-69
2021/04/08 03:11:10;;;;;;;44.87;18.67;;;51.80;2048.00;;;;;;5096373;28;20472;-69
2021/04/08 03:13:40;;;;;;;37.23;15.17;;;51.80;2048.00;;;;;;5096651;28;20372;-70
2021/04/08 03:16:12;;;;;;;27.07;10.67;;;51.80;2048.00;;;;;;5096270;28;20377;-69
2021/04/08 03:18:42;;;;;;;33.23;13.17;;;51.80;2073.60;;;;;;5096591;28;20428;-68
2021/04/08 03:21:09;;;;;;;36.40;15.10;;;51.70;2073.60;;;;;;5096434;28;20061;-69
2021/04/08 03:23:36;;;;;;;47.03;17.37;;;51.80;2073.60;;;;;;5096367;28;20398;-69
2021/04/08 03:26:03;;;;;;;51.20;20.97;;;51.80;2073.60;;;;;;5096383;28;20364;-69
2021/04/08 03:28:31;;;;;;;39.00;18.00;;;51.70;2073.60;;;;;;5095961;28;20493;-69
2021/04/08 03:31:01;;;;;;;43.50;16.67;;;51.70;2073.60;;;;;;5096037;28;20364;-69
2021/04/08 03:33:32;;;;;;;57.70;21.80;;;51.70;2073.60;;;;;;5096245;28;20357;-69
2021/04/08 03:35:59;;;;;;;65.07;24.57;;;51.70;2073.60;;;;;;5096221;28;20403;-69
2021/04/08 03:38:26;;;;;;;62.33;24.47;;;51.70;2073.60;;;;;;5095758;28;20373;-69
2021/04/08 03:40:53;;;;;;;37.83;17.40;;;51.60;2073.60;;;;;;5095768;28;20099;-69
2021/04/08 03:43:20;;;;;;;34.57;13.77;;;51.60;2099.20;;;;;;5095740;28;20365;-69
2021/04/08 03:45:46;;;;;;;27.80;12.90;;;51.60;2099.20;;;;;;5095691;28;20381;-70
2021/04/08 03:48:13;;;;;;;20.67;9.97;;;51.50;2099.20;;;;;;5094778;28;20359;-68
2021/04/08 03:50:42;;;;;;;25.07;10.23;;;51.40;2124.80;;;;;;5095608;28;20476;-69
2021/04/08 03:53:09;;;;;;;25.27;11.40;;;51.40;2124.80;;;;;;5095504;28;20073;-69
2021/04/08 03:55:38;;;;;;;17.13;8.70;;;51.40;2124.80;;;;;;5095496;28;20422;-69
2021/04/08 03:58:08;;;;;;;14.07;7.70;;;51.30;2124.80;;;;;;5095723;28;20413;-68
2021/04/08 04:00:35;;;;;;;16.30;8.23;;;51.30;2150.40;;;;;;5095677;28;20406;-70
2021/04/08 04:03:02;;;;;;;15.50;8.23;;;51.30;2150.40;;;;;;5095416;28;20407;-69
2021/04/08 04:05:28;;;;;;;16.80;8.90;;;51.20;2150.40;;;;;;5095322;28;20016;-70
2021/04/08 04:07:56;;;;;;;16.17;8.20;;;51.20;2176.00;;;;;;5095042;28;20427;-69
2021/04/08 04:10:22;;;;;;;12.83;7.53;;;51.20;2150.40;;;;;;5095275;28;20028;-71
2021/04/08 04:12:54;;;;;;;16.57;7.73;;;51.20;2150.40;;;;;;5095233;28;20404;-71
2021/04/08 04:15:21;;;;;;;17.67;8.07;;;26.50;2150.40;;;;;;5095159;28;20445;-71
2021/04/08 04:17:48;;;;;;;19.70;9.43;;;26.50;2150.40;;;;;;5095057;28;20436;-72
2021/04/08 04:20:19;;;;;;;19.53;9.70;;;26.50;2150.40;;;;;;5095033;28;20479;-70
2021/04/08 04:22:45;;;;;;;21.63;9.30;;;26.50;2176.00;;;;;;5095076;28;20534;-72
2021/04/08 04:25:13;;;;;;;13.13;7.90;;;26.40;2176.00;;;;;;5094888;28;20398;-71
2021/04/08 04:27:40;;;;;;;19.07;9.73;;;26.50;2176.00;;;;;;5094810;28;20551;-71
2021/04/08 04:30:08;;;;;;;13.40;7.00;;;26.50;2176.00;;;;;;5094803;28;20366;-70
2021/04/08 04:32:35;;;;;;;15.47;6.93;;;26.50;2176.00;;;;;;5094798;28;20465;-71
2021/04/08 04:35:02;;;;;;;11.80;7.07;;;51.20;2201.60;;;;;;5094751;28;20465;-71
2021/04/08 04:37:28;;;;;;;10.63;6.67;;;51.20;2201.60;;;;;;5094706;28;20368;-71
2021/04/08 04:39:54;;;;;;;13.77;7.20;;;51.20;2201.60;;;;;;5094600;28;20035;-72
2021/04/08 04:42:20;;;;;;;17.50;9.43;;;51.30;2201.60;;;;;;5094547;28;20072;-72
2021/04/08 04:44:46;;;;;;;21.10;10.90;;;51.40;2201.60;;;;;;5094845;28;20082;-72
2021/04/08 04:47:12;;;;;;;21.40;10.47;;;51.30;2201.60;;;;;;5094475;28;20035;-71
2021/04/08 04:49:38;;;;;;;17.23;9.90;;;51.30;2176.00;;;;;;5094467;28;20522;-71
2021/04/08 04:52:05;;;;;;;24.20;10.40;;;51.40;2176.00;;;;;;5094453;28;20469;-73
2021/04/08 04:54:31;;;;;;;64.60;12.03;;;51.30;2176.00;;;;;;5094249;28;20342;-71
2021/04/08 04:56:57;;;;;;;16.47;9.50;;;51.30;2176.00;;;;;;5094405;28;20095;-71
2021/04/08 04:59:23;;;;;;;18.20;9.23;;;51.40;2176.00;;;;;;5094548;28;20582;-71
2021/04/08 05:01:49;;;;;;;13.90;8.67;;;51.40;2176.00;;;;;;5094248;28;20357;-71
2021/04/08 05:04:16;;;;;;;14.87;8.70;;;51.40;2176.00;;;;;;5094316;28;20465;-71
2021/04/08 05:06:42;;;;;;;17.33;8.23;;;51.40;2176.00;;;;;;5094402;28;20444;-71
2021/04/08 05:09:08;;;;;;;17.10;10.27;;;51.50;2176.00;;;;;;5093965;28;20484;-71
2021/04/08 05:11:34;;;;;;;18.30;8.93;;;51.40;2176.00;;;;;;5094091;28;20468;-70
2021/04/08 05:14:00;;;;;;;16.83;10.10;;;51.40;2176.00;;;;;;5094016;28;20434;-71
2021/04/08 05:16:27;;;;;;;16.47;9.80;;;51.40;2176.00;;;;;;5075938;28;20404;-71
2021/04/08 05:18:54;;;;;;;18.20;9.33;;;51.40;2201.60;;;;;;5093929;28;20456;-70
2021/04/08 05:21:20;;;;;;;16.07;9.90;;;51.50;2176.00;;;;;;5093898;28;20342;-71
2021/04/08 05:23:46;;;;;;;16.97;9.43;;;51.50;2201.60;;;;;;5094447;28;20024;-72
2021/04/08 05:26:12;;;;;;;21.70;10.70;;;51.50;2201.60;;;;;;5093841;28;20481;-71
2021/04/08 05:28:39;;;;;;;19.43;10.83;;;51.60;2201.60;;;;;;5093724;28;20369;-71
2021/04/08 05:31:05;;;;;;;17.33;10.13;;;51.60;2201.60;;;;;;5094037;28;20370;-70
2021/04/08 05:33:31;;;;;;;18.47;11.23;;;51.60;2201.60;;;;;;5093955;28;20516;-71
2021/04/08 05:35:57;;;;;;;18.77;11.43;;;51.70;2227.20;;;;;;5093720;28;20473;-72
2021/04/08 05:38:23;;;;;;;18.63;12.97;;;51.70;2227.20;;;;;;5093629;28;20376;-71
2021/04/08 05:40:50;;;;;;;21.60;13.87;;;51.80;2201.60;;;;;;5093928;28;20348;-72
2021/04/08 05:43:17;;;;;;;21.27;13.63;;;51.80;2227.20;;;;;;5093561;28;20360;-71
2021/04/08 05:45:45;;;;;;;21.53;14.60;;;51.80;2227.20;;;;;;5093474;28;20078;-68
2021/04/08 05:48:13;;;;;;;23.30;15.37;;;51.90;2201.60;;;;;;5093745;28;20037;-68
2021/04/08 05:50:39;;;;;;;21.27;13.97;;;51.90;2227.20;;;;;;5093541;28;20403;-69
2021/04/08 05:53:05;;;;;;;38.67;23.60;;;52.00;2201.60;;;;;;5075499;28;20346;-69
2021/04/08 05:55:31;;;;;;;26.10;16.07;;;52.10;2201.60;;;;;;5094097;28;20077;-69
2021/04/08 05:57:57;;;;;;;30.03;17.50;;;76.80;2201.60;;;;;;5093575;28;20468;-69
2021/04/08 06:00:24;;;;;;;27.83;17.60;;;76.90;2176.00;;;;;;5075558;28;20430;-69
2021/04/08 06:02:50;;;;;;;26.00;17.67;;;77.00;2150.40;;;;;;5093597;28;20539;-69
2021/04/08 06:05:16;;;;;;;28.97;16.97;;;77.20;2150.40;;;;;;5093529;28;20333;-69
2021/04/08 06:07:42;;;;;;;28.30;17.27;;;77.30;2124.80;;;;;;5093189;28;20411;-69
2021/04/08 06:13:30;;;;;;;25.27;17.33;;;77.40;2124.80;;;;;;5097749;28;20034;-68
2021/04/08 06:15:56;;;;;;;23.03;16.33;;;77.50;2099.20;;;;;;5097898;28;20488;-69
2021/04/08 06:18:22;;;;;;;22.73;16.43;;;77.50;2099.20;;;;;;5097520;28;20364;-69
2021/04/08 06:20:49;;;;;;;22.57;15.17;;;77.70;2099.20;;;;;;5097859;28;20445;-69
2021/04/08 06:23:16;;;;;;;29.63;18.27;;;102.40;2099.20;;;;;;5097483;28;20453;-69
2021/04/08 06:25:42;;;;;;;21.40;14.50;;;102.50;2073.60;;;;;;5097474;28;20356;-69
2021/04/08 06:28:08;;;;;;;22.43;13.40;;;102.60;2073.60;;;;;;5097622;28;20452;-69
2021/04/08 06:30:35;;;;;;;20.77;13.95;;;102.70;2048.00;;;;;;5097631;28;20102;-69
2021/04/08 06:33:01;;;;;;;20.67;13.30;;;154.00;1920.00;;;;;;5097304;28;20376;-69
2021/04/08 06:35:27;;;;;;;17.25;12.30;;;282.10;1382.40;;;;;;5097287;28;20368;-70
2021/04/08 06:37:53;;;;;;;20.73;14.07;;;359.20;1049.60;;;;;;5097207;28;20016;-69
2021/04/08 06:40:22;;;;;;;19.38;14.55;;;460.80;947.20;;;;;;5097159;28;20372;-69
2021/04/08 06:42:52;;;;;;;19.40;14.43;;;512.00;768.00;;;;;;5097051;28;20360;-70
2021/04/08 06:45:22;;;;;;;26.17;15.73;;;538.40;716.80;;;;;;5097261;28;20453;-69
2021/04/08 06:48:05;;;;;;;24.58;17.08;;;589.10;665.60;;;;;;5097176;28;20357;-71
2021/04/08 06:50:37;;;;;;;37.15;33.17;;;614.90;614.40;;;;;;5096948;28;20360;-71
2021/04/08 06:53:05;;;;;;;31.30;24.63;;;615.10;588.80;;;;;;5096872;28;20384;-72
2021/04/08 06:55:32;;;;;;;19.88;13.27;;;640.60;563.20;;;;;;5096904;28;20521;-70
2021/04/08 06:57:59;;;;;;;42.25;30.88;;;614.70;588.80;;;;;;5096706;28;20373;-74
2021/04/08 07:00:26;;;;;;;28.30;17.27;;;563.70;665.60;;;;;;5078565;28;20414;-69
2021/04/08 07:02:52;;;;;;;19.40;12.35;;;486.70;742.40;;;;;;5096679;28;20028;-68
2021/04/08 07:05:19;;;;;;;19.05;12.02;;;435.40;819.20;;;;;;5096642;28;20420;-70
2021/04/08 07:07:45;;;;;;;18.27;12.13;;;384.70;896.00;;;;;;5096267;28;20434;-70
2021/04/08 07:10:12;;;;;;;18.95;11.65;;;359.20;972.80;;;;;;5096502;28;20369;-70
2021/04/08 07:12:38;;;;;;;19.35;12.40;;;358.60;1024.00;;;;;;5096488;28;20397;-70
2021/04/08 07:15:06;;;;;;;24.15;13.95;;;333.40;1075.20;;;;;;5096400;28;20456;-70
2021/04/08 07:17:33;;;;;;;24.65;13.25;;;308.10;1126.40;;;;;;5096490;28;20022;-69
2021/04/08 07:19:59;;;;;;;26.83;15.88;;;307.80;1152.00;;;;;;5097210;28;20387;-77
2021/04/08 07:22:26;;;;;;;16.02;10.63;;;307.50;1152.00;;;;;;5095055;28;20449;-69
2021/04/08 07:24:53;;;;;;;53.88;47.42;;;282.40;1152.00;;;;;;5096326;28;20350;-67
2021/04/08 07:27:25;;;;;;;36.80;26.05;;;282.00;1177.60;;;;;;5096084;28;20418;-69
2021/04/08 07:29:58;;;;;;;19.20;13.15;;;281.80;1203.20;;;;;;5096203;28;20357;-69
2021/04/08 07:32:24;;;;;;;;;;;256.70;1203.20;;;;;;5096885;28;20384;-68
2021/04/08 07:34:53;;;;;;;19.08;10.82;;;256.10;1254.40;;;;;;5096066;28;19904;-75
2021/04/08 07:37:32;;;;;;;17.05;10.90;;;231.30;1280.00;;;;;;5078015;28;20453;-74
2021/04/08 07:40:17;;;;;;;20.67;10.85;;;230.70;1331.20;;;;;;5096061;28;20486;-73
2021/04/08 07:42:44;;;;;;;17.50;10.18;;;230.70;1280.00;;;;;;5096158;28;20361;-71
2021/04/08 07:45:21;;;;;;;14.82;9.57;;;230.70;1280.00;;;;;;5095852;28;20452;-72
2021/04/08 07:47:57;;;;;;;17.70;11.40;;;230.60;1331.20;;;;;;5095871;28;20042;-70
2021/04/08 07:50:23;;;;;;;28.35;10.85;;;230.40;1356.80;;;;;;5096215;28;20459;-80
2021/04/08 07:52:50;;;;;;;11.93;7.63;;;230.40;1356.80;;;;;;5095979;28;20372;-72
2021/04/08 07:55:23;;;;;;;17.38;9.35;;;230.40;1356.80;;;;;;5095780;28;20431;-73
2021/04/08 07:57:54;;;;;;;15.40;9.15;;;230.50;1331.20;;;;;;5096385;28;20464;-72
2021/04/08 08:00:22;;;;;;;14.98;10.35;;;230.40;1331.20;;;;;;5095589;28;20372;-74
2021/04/08 08:02:49;;;;;;;70.93;42.63;;;230.50;1331.20;;;;;;5095571;28;20357;-73
2021/04/08 08:05:27;;;;;;;24.65;16.48;;;230.60;1305.60;;;;;;5095475;28;20403;-83
2021/04/08 08:08:06;;;;;;;11.27;5.93;;;230.70;1305.60;;;;;;5095293;28;20499;-72
2021/04/08 08:10:33;;;;;;;13.10;6.30;;;230.60;1305.60;;;;;;5095299;28;20501;-73
2021/04/08 08:12:59;;;;;;;13.07;7.10;;;230.70;1280.00;;;;;;5095585;28;20456;-73
2021/04/08 08:15:28;;;;;;;12.90;5.95;;;230.70;1305.60;;;;;;5095276;28;20342;-74
2021/04/08 08:18:08;;;;;;;11.10;6.50;;;230.90;1305.60;;;;;;5095234;28;20028;-73
2021/04/08 08:20:34;;;;;;;12.95;6.15;;;230.90;1280.00;;;;;;5095286;28;20346;-74
2021/04/08 08:23:00;;;;;;;7.07;4.55;;;231.00;1254.40;;;;;;5095185;28;20082;-72
2021/04/08 08:25:30;;;;;;;10.77;5.78;;;230.90;1228.80;;;;;;5095105;28;20020;-72
2021/04/08 08:27:57;;;;;;;10.07;5.55;;;230.90;1203.20;;;;;;5095043;28;20357;-73
2021/04/08 08:30:31;;;;;;;13.90;8.57;;;230.90;1203.20;;;;;;5094959;28;20402;-72
2021/04/08 08:33:10;;;;;;;28.08;19.25;;;231.00;1228.80;;;;;;5094940;28;20349;-72
2021/04/08 08:35:38;;;;;;;60.90;42.78;;;231.10;1177.60;;;;;;5076773;28;20365;-74
2021/04/08 08:38:11;;;;;;;36.03;22.80;;;256.10;1126.40;;;;;;5095050;28;20509;-72
2021/04/08 08:40:38;;;;;;;14.05;7.25;;;256.20;1100.80;;;;;;5076711;28;20357;-73
2021/04/08 08:43:05;;;;;;;10.38;5.72;;;256.30;1126.40;;;;;;5094805;28;20469;-73
2021/04/08 08:45:33;;;;;;;7.35;4.57;;;256.40;1126.40;;;;;;5094662;28;20503;-73
2021/04/08 08:48:03;;;;;;;13.13;4.22;;;256.50;1075.20;;;;;;5095098;28;20431;-72
2021/04/08 08:50:30;;;;;;;9.30;3.95;;;256.50;1024.00;;;;;;5094630;28;20353;-72
2021/04/08 08:52:56;;;;;;;11.07;5.65;;;256.50;1024.00;;;;;;5094471;28;20338;-73
2021/04/08 08:55:24;;;;;;;16.52;14.88;;;256.60;1049.60;;;;;;5094485;28;20425;-72
2021/04/08 08:57:53;;;;;;;6.10;3.35;;;256.80;998.40;;;;;;5094363;28;20422;-71
2021/04/08 09:00:22;;;;;;;6.93;3.47;;;256.90;947.20;;;;;;5094433;28;20455;-72
2021/04/08 09:02:49;;;;;;;10.75;6.53;;;256.90;921.60;;;;;;5094375;28;20031;-73
2021/04/08 09:05:19;;;;;;;8.85;4.85;;;281.60;972.80;;;;;;5094409;28;20468;-72
2021/04/08 09:07:52;;;;;;;13.20;10.73;;;256.90;947.20;;;;;;5094083;28;20503;-73
2021/04/08 09:10:33;;;;;;;5.57;3.83;;;256.80;972.80;;;;;;5094115;28;20453;-74
2021/04/08 09:13:00;;;;;;;46.60;31.15;;;256.90;972.80;;;;;;5094132;28;20506;-73
2021/04/08 09:15:27;;;;;;;11.18;7.60;;;281.70;998.40;;;;;;5094100;28;20369;-71
2021/04/08 09:18:01;;;;;;;9.27;3.90;;;281.90;972.80;;;;;;5094125;28;20345;-73
2021/04/08 09:20:28;;;;;;;9.00;2.33;;;282.10;998.40;;;;;;5094124;28;20464;-74
2021/04/08 09:23:11;;;;;;;7.00;2.60;;;282.10;947.20;;;;;;5094114;28;20471;-71
2021/04/08 09:25:41;;;;;;;7.22;3.30;;;282.10;921.60;;;;;;5093938;28;20369;-72
2021/04/08 09:28:09;;;;;;;5.93;2.80;;;281.90;947.20;;;;;;5093794;28;20381;-73
2021/04/08 09:30:58;;;;;;;6.25;3.08;;;281.80;972.80;;;;;;5094217;28;20360;-73
2021/04/08 09:33:48;;;;;;;3.97;3.10;;;281.70;972.80;;;;;;5093937;28;20364;-72
2021/04/08 09:36:24;;;;;;;5.13;2.67;;;281.70;972.80;;;;;;5075829;28;20414;-84
2021/04/08 09:38:56;;;;;;;9.38;3.00;;;281.90;972.80;;;;;;5076018;28;20540;-70
2021/04/08 09:41:43;;;;;;;6.00;3.13;;;282.20;998.40;;;;;;5094025;28;20406;-70
2021/04/08 09:44:11;;;;;;;8.43;4.25;;;282.10;947.20;;;;;;5093677;28;20399;-72
2021/04/08 09:46:41;;;;;;;6.90;3.55;;;282.10;972.80;;;;;;5093296;28;20365;-72
2021/04/08 09:49:08;;;;;;;8.52;5.80;;;282.10;1024.00;;;;;;5093789;28;20399;-74
2021/04/08 09:51:44;;;;;;;15.68;11.88;;;282.10;1049.60;;;;;;5093316;28;20385;-71
2021/04/08 09:54:15;;;;;;;8.60;4.40;;;282.10;1024.00;;;;;;5093762;28;20513;-72
2021/04/08 09:56:49;;;;;;;6.85;4.43;;;282.10;1049.60;;;;;;5093676;28;20495;-72
2021/04/08 09:59:15;;;;;;;;;;;282.10;1049.60;;;;;;5075943;28;20405;-71
2021/04/08 10:01:42;;;;;;;6.40;3.97;;;282.20;1049.60;;;;;;5093491;28;20264;-71
2021/04/08 10:04:13;;;;;;;7.75;4.45;;;282.20;1049.60;;;;;;5093870;28;20525;-70
2021/04/08 10:06:40;;;;;;;12.45;6.88;;;282.30;1024.00;;;;;;5094141;28;20376;-71
2021/04/08 10:09:15;;;;;;;7.15;3.97;;;282.20;1049.60;;;;;;5075209;28;20422;-79
2021/04/08 10:11:42;;;;;;;5.45;3.30;;;282.30;1024.00;;;;;;5093594;28;20412;-72
2021/04/08 10:14:28;;;;;;;8.80;5.10;;;282.50;1049.60;;;;;;5093279;28;20476;-72
2021/04/08 10:17:08;;;;;;;7.30;3.63;;;282.40;1049.60;;;;;;5093319;28;20020;-72
2021/04/08 10:19:39;;;;;;;7.05;3.75;;;282.40;1049.60;;;;;;5075252;28;20391;-72
2021/04/08 10:22:09;;;;;;;9.82;5.18;;;307.20;1049.60;;;;;;5093372;28;20460;-71
2021/04/08 10:24:43;;;;;;;8.80;4.72;;;307.30;1049.60;;;;;;5094116;28;20341;-73
2021/04/08 10:27:19;;;;;;;7.82;4.25;;;307.40;998.40;;;;;;5093330;28;20464;-71
2021/04/08 10:29:47;;;;;;;13.20;6.72;;;307.30;1024.00;;;;;;5093342;28;20345;-71
2021/04/08 10:32:32;;;;;;;7.57;3.97;;;307.30;998.40;;;;;;5093633;28;20460;-74
2021/04/08 10:34:58;;;;;;;9.13;6.30;;;307.20;1024.00;;;;;;5093327;28;20364;-73
2021/04/08 10:37:25;;;;;;;6.00;3.70;;;307.20;1024.00;;;;;;5093531;28;20107;-72
2021/04/08 10:39:51;;;;;;;4.85;4.03;;;307.40;1024.00;;;;;;5093224;28;20433;-76
2021/04/08 10:42:17;;;;;;;3.63;2.40;;;307.50;998.40;;;;;;5093557;28;20330;-74
2021/04/08 10:44:49;;;;;;;4.65;3.00;;;307.80;998.40;;;;;;5093493;28;20361;-72
2021/04/08 10:47:23;;;;;;;4.32;2.70;;;307.70;972.80;;;;;;5093428;28;20360;-71
2021/04/08 10:49:57;;;;;;;6.35;4.18;;;307.70;972.80;;;;;;5093138;28;20369;-72
2021/04/08 10:52:26;;;;;;;5.85;3.28;;;307.80;972.80;;;;;;5093361;28;20051;-72
2021/04/08 10:54:55;;;;;;;9.68;4.70;;;307.80;972.80;;;;;;5093018;28;20360;-72
2021/04/08 10:57:22;;;;;;;17.80;10.38;;;307.70;947.20;;;;;;5095590;28;20483;-71
2021/04/08 10:59:50;;;;;;;8.32;5.88;;;307.70;972.80;;;;;;5096832;28;20472;-72
2021/04/08 11:02:26;;;;;;;7.22;6.47;;;307.70;972.80;;;;;;5096792;28;20372;-73
2021/04/08 11:04:54;;;;;;;6.55;4.10;;;307.70;972.80;;;;;;5096751;28;20466;-71
2021/04/08 11:07:21;;;;;;;14.25;7.05;;;307.80;972.80;;;;;;5096354;28;20509;-74
2021/04/08 11:09:49;;;;;;;39.83;24.30;;;308.00;972.80;;;;;;5096653;28;20361;-83
2021/04/08 11:12:25;;;;;;;13.23;7.93;;;308.00;972.80;;;;;;5096616;28;20413;-75
2021/04/08 11:14:55;;;;;;;8.85;3.88;;;308.10;972.80;;;;;;5076769;22;20400;-73
2021/04/08 11:17:23;;;;;;;6.30;2.60;;;308.10;921.60;;;;;;5075623;28;20027;-73
2021/04/08 11:19:52;;;;;;;6.15;3.10;;;308.00;921.60;;;;;;5076444;28;20361;-73
2021/04/08 11:22:21;;;;;;;6.05;3.80;;;308.00;921.60;;;;;;5076405;28;20059;-76
2021/04/08 11:24:49;;;;;;;8.10;4.40;;;308.00;896.00;;;;;;5076078;28;20400;-73
2021/04/08 11:27:24;;;;;;;21.83;11.75;;;307.90;870.40;;;;;;5075800;28;20441;-72
2021/04/08 11:29:54;;;;;;;13.23;7.72;;;307.90;921.60;;;;;;5076175;28;20358;-73
2021/04/08 11:32:21;;;;;;;7.25;4.35;;;307.90;921.60;;;;;;5057922;28;20020;-72
2021/04/08 11:34:48;;;;;;;16.13;7.35;;;307.90;896.00;;;;;;5075726;28;20431;-71
2021/04/08 11:37:19;;;;;;;11.00;5.20;;;307.90;896.00;;;;;;5075967;28;20402;-73
2021/04/08 11:39:47;;;;;;;6.07;3.80;;;308.00;972.80;;;;;;5075504;28;20021;-72
2021/04/08 11:42:14;;;;;;;9.00;3.78;;;308.10;947.20;;;;;;5075614;28;20411;-73
2021/04/08 11:44:41;;;;;;;9.13;4.47;;;333.00;972.80;;;;;;5075642;28;20460;-72
2021/04/08 11:47:17;;;;;;;9.18;4.15;;;332.80;870.40;;;;;;5057474;28;20419;-73
2021/04/08 11:49:47;;;;;;;9.85;5.50;;;308.10;896.00;;;;;;5075637;28;20031;-73
2021/04/08 11:52:16;;;;;;;7.68;4.05;;;307.80;896.00;;;;;;5057407;28;20350;-72
2021/04/08 11:54:57;;;;;;;5.75;3.30;;;307.80;921.60;;;;;;5075451;28;20469;-72
2021/04/08 11:57:24;;;;;;;11.63;4.25;;;307.70;947.20;;;;;;5075334;28;20443;-68
2021/04/08 11:59:50;;;;;;;6.65;2.90;;;307.80;972.80;;;;;;5075272;28;20423;-69
2021/04/08 12:02:37;;;;;;;11.90;4.60;;;307.90;972.80;;;;;;5075412;28;20368;-69
2021/04/08 12:05:11;;;;;;;11.93;6.07;;;307.80;972.80;;;;;;5075298;28;20369;-69
2021/04/08 12:07:50;;;;;;;9.48;5.18;;;307.80;947.20;;;;;;5074862;28;20514;-69
2021/04/08 12:10:28;;;;;;;8.88;4.43;;;307.70;921.60;;;;;;5075104;28;20428;-69
2021/04/08 12:12:59;;;;;;;8.45;3.38;;;307.40;972.80;;;;;;5075105;28;20441;-68
2021/04/08 12:15:36;;;;;;;5.97;3.83;;;307.40;947.20;;;;;;5074741;28;20045;-69
2021/04/08 12:18:11;;;;;;;9.73;5.57;;;307.40;947.20;;;;;;5075234;28;20381;-68
2021/04/08 12:20:38;;;;;;;6.15;3.38;;;307.60;972.80;;;;;;5075200;28;20338;-67
2021/04/08 12:23:13;;;;;;;8.32;3.47;;;307.80;921.60;;;;;;5074966;28;20480;-70
2021/04/08 12:25:51;;;;;;;8.95;8.07;;;307.90;947.20;;;;;;5074822;28;20407;-69
2021/04/08 12:28:19;;;;;;;6.85;5.15;;;308.00;896.00;;;;;;5074945;28;20364;-69
2021/04/08 12:30:59;;;;;;;5.15;4.22;;;307.90;921.60;;;;;;5074762;28;20433;-76